createdAt,value
2018-08-03T20:04:55.973Z,11.37
2018-08-03T20:07:24.555Z,11.33
2018-08-03T20:13:08.829Z,11.27
2018-08-03T20:15:37.482Z,10.80
2018-08-03T20:18:06.063Z,10.83
2018-08-03T20:20:37.055Z,11.57
2018-08-03T20:23:05.637Z,11.47
2018-08-03T20:25:34.142Z,10.90
2018-08-03T20:28:02.707Z,12.00
2018-08-03T20:30:31.261Z,11.63
2018-08-03T20:32:59.772Z,11.83
2018-08-03T20:35:28.267Z,12.13
2018-08-03T20:37:58.655Z,12.13
2018-08-03T20:40:27.194Z,11.57
2018-08-03T20:42:55.758Z,11.47
2018-08-03T20:45:24.443Z,12.57
2018-08-03T20:47:53.709Z,12.00
2018-08-03T20:50:22.388Z,11.73
2018-08-03T20:52:50.992Z,12.33
2018-08-03T20:55:19.597Z,12.37
2018-08-03T20:57:48.193Z,11.77
2018-08-03T21:00:16.752Z,11.00
2018-08-03T21:02:45.315Z,12.27
2018-08-03T21:05:13.878Z,11.87
2018-08-03T21:07:42.410Z,12.53
2018-08-03T21:10:10.949Z,12.33
2018-08-03T21:12:39.557Z,12.20
2018-08-03T21:15:08.850Z,12.90
2018-08-03T21:17:37.446Z,12.53
2018-08-03T21:20:06.942Z,13.27
2018-08-03T21:22:35.450Z,12.67
2018-08-03T21:25:04.282Z,12.60
2018-08-03T21:27:33.282Z,13.20
2018-08-03T21:30:01.851Z,12.33
2018-08-03T21:32:30.402Z,13.83
2018-08-03T21:34:58.940Z,13.83
2018-08-03T21:37:27.534Z,13.80
2018-08-03T21:39:55.682Z,13.97
2018-08-03T21:42:24.194Z,14.40
2018-08-03T21:44:52.764Z,14.40
2018-08-03T21:50:24.815Z,14.20
2018-08-03T21:52:53.424Z,14.00
2018-08-03T21:55:21.850Z,15.07
2018-08-03T21:57:50.378Z,15.10
2018-08-03T22:00:20.978Z,14.50
2018-08-03T22:02:49.839Z,14.20
2018-08-03T22:05:18.392Z,13.97
2018-08-03T22:07:47.362Z,14.70
2018-08-03T22:10:16.018Z,14.80
2018-08-03T22:12:44.526Z,14.10
2018-08-03T22:15:13.041Z,15.40
2018-08-03T22:17:41.560Z,15.80
2018-08-03T22:20:10.072Z,14.17
2018-08-03T22:22:38.577Z,14.50
2018-08-03T22:25:07.175Z,14.17
2018-08-03T22:27:35.689Z,14.27
2018-08-03T22:30:04.876Z,14.93
2018-08-03T22:32:33.432Z,15.73
2018-08-03T22:35:01.904Z,14.40
2018-08-03T22:37:30.428Z,15.37
2018-08-03T22:39:58.886Z,14.60
2018-08-03T22:42:27.359Z,14.03
2018-08-03T22:44:55.891Z,13.97
2018-08-03T22:47:24.359Z,15.77
2018-08-03T22:49:52.973Z,14.70
2018-08-03T22:52:21.423Z,15.27
2018-08-03T22:54:49.933Z,16.03
2018-08-03T22:57:18.415Z,14.17
2018-08-03T22:59:46.941Z,14.53
2018-08-03T23:02:15.457Z,15.60
2018-08-03T23:04:43.994Z,15.30
2018-08-03T23:07:12.495Z,15.23
2018-08-03T23:09:40.997Z,15.87
2018-08-03T23:12:09.547Z,15.47
2018-08-03T23:14:38.055Z,14.63
2018-08-03T23:17:06.590Z,15.70
2018-08-03T23:19:35.099Z,14.87
2018-08-03T23:22:03.651Z,15.00
2018-08-03T23:24:31.821Z,15.23
2018-08-03T23:27:00.363Z,16.03
2018-08-03T23:29:28.868Z,15.37
2018-08-03T23:31:57.367Z,15.50
2018-08-03T23:34:25.551Z,14.77
2018-08-03T23:36:54.067Z,15.60
2018-08-03T23:39:22.563Z,14.93
2018-08-03T23:41:51.039Z,15.70
2018-08-03T23:44:19.539Z,16.03
2018-08-03T23:46:48.035Z,15.43
2018-08-03T23:49:16.519Z,15.37
2018-08-03T23:51:45.006Z,15.03
2018-08-03T23:54:13.545Z,15.00
2018-08-03T23:56:42.083Z,15.73
2018-08-03T23:59:10.583Z,15.77
